Time;durP1;ratioP1;P1;durP2;ratioP2;P2;SDS_P1;SDS_P2;PMS_P1;PMS_P2;Temp;Humidity;BMP_temperature;BMP_pressure;BME280_temperature;BME280_humidity;BME280_pressure;Samples;Min_cycle;Max_cycle;Signal;HPM_P1;HPM_P2
2022/04/03 00:00:05;;;;;;;8.10;4.30;;;;;;;10.51;65.36;97708.89;25073;1318;3027494;-73
2022/04/03 00:02:34;;;;;;;13.00;5.10;;;;;;;10.09;65.56;97711.85;25054;1318;3027120;-69
2022/04/03 00:05:05;;;;;;;11.40;4.70;;;;;;;9.90;66.57;97711.35;25016;1316;3026203;-66
2022/04/03 00:07:34;;;;;;;9.80;5.10;;;;;;;9.80;66.60;97708.81;25072;1318;3026740;-72
2022/04/03 00:10:04;;;;;;;10.30;5.60;;;;;;;9.75;66.78;97701.08;25088;1318;3026894;-72
2022/04/03 00:12:33;;;;;;;14.20;6.90;;;;;;;9.66;66.67;97703.25;25104;1316;3028875;-76
2022/04/03 00:15:03;;;;;;;13.40;6.20;;;;;;;9.56;66.58;97705.81;25069;1318;3026220;-67
2022/04/03 00:17:33;;;;;;;11.30;5.60;;;;;;;9.53;66.49;97708.85;25155;1318;3053856;-68
2022/04/03 00:20:04;;;;;;;12.30;6.20;;;;;;;9.39;66.81;97720.33;25084;1318;3026531;-73
2022/04/03 00:22:34;;;;;;;12.60;5.70;;;;;;;9.46;66.66;97723.42;25097;1318;3026288;-74
2022/04/03 00:25:04;;;;;;;12.40;6.20;;;;;;;9.53;66.33;97729.13;25099;1318;3026867;-67
2022/04/03 00:27:34;;;;;;;11.80;5.20;;;;;;;9.53;66.76;97731.54;25112;1318;3053402;-72
2022/04/03 00:30:04;;;;;;;15.80;6.80;;;;;;;9.62;65.76;97734.70;25071;1318;3027329;-69
2022/04/03 00:32:36;;;;;;;14.30;5.00;;;;;;;9.57;66.74;97737.36;25123;1318;3026554;-65
2022/04/03 00:35:05;;;;;;;11.40;5.80;;;;;;;10.23;66.08;97738.95;25106;1318;3026196;-69
2022/04/03 00:37:35;;;;;;;14.30;6.40;;;;;;;10.62;64.16;97749.02;25095;1318;3027387;-72
2022/04/03 00:40:05;;;;;;;17.00;7.30;;;;;;;10.68;64.07;97748.71;25097;1316;3026809;-74
2022/04/03 00:42:36;;;;;;;19.20;8.00;;;;;;;10.71;64.15;97739.16;25082;1318;3026454;-71
2022/04/03 00:45:06;;;;;;;19.50;7.60;;;;;;;10.57;64.71;97737.24;25136;1316;3026605;-72
2022/04/03 00:47:35;;;;;;;14.80;7.40;;;;;;;10.40;65.39;97735.96;25089;1316;3027933;-70
2022/04/03 00:50:05;;;;;;;20.80;7.80;;;;;;;10.30;65.43;97735.41;25033;1318;3026677;-71
2022/04/03 00:52:36;;;;;;;17.90;7.00;;;;;;;10.18;65.81;97741.30;25125;1316;3052658;-74
2022/04/03 00:55:05;;;;;;;20.40;8.60;;;;;;;9.98;66.59;97750.35;25095;1319;3026662;-71
2022/04/03 00:57:34;;;;;;;15.50;7.90;;;;;;;9.81;67.49;97749.36;25147;1318;3051098;-72
2022/04/03 01:00:04;;;;;;;13.60;7.20;;;;;;;9.79;66.91;97744.80;25098;1316;3026408;-68
2022/04/03 01:02:34;;;;;;;13.20;6.90;;;;;;;9.71;67.44;97749.16;25115;1318;3056586;-64
2022/04/03 01:07:59;;;;;;;12.40;6.00;;;;;;;10.28;67.70;97738.71;31954;1319;3026845;-62
2022/04/03 01:10:29;;;;;;;10.20;5.90;;;;;;;11.10;65.68;97733.28;25339;1319;3026483;-69
2022/04/03 01:12:58;;;;;;;9.90;5.00;;;;;;;11.37;64.05;97729.55;25159;1319;3026790;-70
2022/04/03 01:15:27;;;;;;;8.20;5.00;;;;;;;11.10;64.49;97738.53;25172;1319;3026576;-64
2022/04/03 01:17:57;;;;;;;8.10;4.70;;;;;;;10.70;64.02;97742.59;25005;1319;3054146;-71
2022/04/03 01:20:35;;;;;;;7.30;4.10;;;;;;;10.35;64.00;97743.14;25051;1313;3055351;-68
2022/04/03 01:23:05;;;;;;;9.50;5.40;;;;;;;10.15;63.64;97753.83;25149;1313;3058607;-71
2022/04/03 01:25:34;;;;;;;13.00;5.50;;;;;;;9.88;64.07;97752.06;25124;1313;3026322;-67
2022/04/03 01:28:04;;;;;;;10.70;5.90;;;;;;;9.71;64.52;97738.27;25156;1317;3055050;-71
2022/04/03 01:30:33;;;;;;;10.90;6.10;;;;;;;9.44;65.42;97742.80;25186;1313;3027453;-66
2022/04/03 01:33:02;;;;;;;10.10;6.00;;;;;;;9.28;66.20;97746.61;25072;1313;3026585;-76
2022/04/03 01:35:32;;;;;;;9.30;5.70;;;;;;;9.30;66.19;97742.41;25209;1313;3052146;-72
2022/04/03 01:38:01;;;;;;;9.60;5.20;;;;;;;9.29;65.76;97735.18;25173;1312;3026156;-71
2022/04/03 01:40:34;;;;;;;11.70;5.60;;;;;;;9.12;66.65;97737.93;25121;1313;3054764;-71
2022/04/03 01:43:04;;;;;;;12.00;5.40;;;;;;;8.98;67.29;97733.34;25151;1313;3026420;-74
2022/04/03 01:45:34;;;;;;;9.00;5.10;;;;;;;8.86;67.63;97738.27;25146;1313;3026436;-68
2022/04/03 01:48:04;;;;;;;13.40;5.90;;;;;;;8.72;68.03;97734.15;25106;1313;3027618;-75
2022/04/03 01:50:34;;;;;;;12.10;6.20;;;;;;;8.64;68.36;97732.40;25150;1313;3026617;-73
2022/04/03 01:53:04;;;;;;;14.00;6.40;;;;;;;8.61;68.15;97738.01;25155;1313;3026573;-70
2022/04/03 01:55:33;;;;;;;11.50;5.40;;;;;;;8.56;68.44;97741.24;25151;1313;3048994;-68
2022/04/03 01:58:08;;;;;;;12.70;6.00;;;;;;;9.22;66.73;97734.83;25136;1313;3026439;-71
2022/04/03 02:00:43;;;;;;;22.10;6.90;;;;;;;9.91;64.03;97729.60;25142;1313;3058773;-72
2022/04/03 02:03:12;;;;;;;24.10;8.80;;;;;;;9.90;63.00;97738.30;25107;1313;3026546;-65
2022/04/03 02:05:42;;;;;;;28.10;9.40;;;;;;;9.83;62.62;97745.71;25153;1313;3054702;-67
2022/04/03 02:08:12;;;;;;;31.80;11.80;;;;;;;9.66;62.61;97755.70;25083;1313;3028150;-72
2022/04/03 02:10:42;;;;;;;32.00;10.40;;;;;;;9.59;63.58;97767.29;25159;1313;3026854;-74
2022/04/03 02:13:14;;;;;;;37.80;9.10;;;;;;;9.35;64.95;97773.63;25148;1313;3026512;-72
2022/04/03 02:15:44;;;;;;;30.10;10.70;;;;;;;9.27;64.90;97779.89;25139;1313;3026791;-70
2022/04/03 02:18:12;;;;;;;31.50;10.10;;;;;;;9.15;64.30;97780.29;25128;1313;3050802;-68
2022/04/03 02:20:43;;;;;;;30.70;9.70;;;;;;;9.01;64.05;97780.39;25141;1313;3027459;-65
2022/04/03 02:23:13;;;;;;;26.40;9.00;;;;;;;8.99;64.31;97773.39;25102;1316;3026586;-68
2022/04/03 02:25:43;;;;;;;25.40;8.40;;;;;;;8.98;63.96;97770.66;25129;1316;3026743;-73
2022/04/03 02:28:12;;;;;;;25.30;8.00;;;;;;;8.81;64.50;97772.74;25086;1316;3026354;-76
2022/04/03 02:30:41;;;;;;;16.20;5.90;;;;;;;8.81;64.35;97774.64;25146;1313;3052404;-67
2022/04/03 02:33:10;;;;;;;11.00;5.00;;;;;;;8.85;64.07;97777.30;25068;1313;3026563;-65
2022/04/03 02:35:40;;;;;;;13.60;5.10;;;;;;;8.77;64.05;97778.10;25142;1313;3053833;-74
2022/04/03 02:38:09;;;;;;;17.20;6.20;;;;;;;8.66;64.49;97772.92;25157;1313;3026141;-71
2022/04/03 02:40:38;;;;;;;23.90;8.90;;;;;;;8.65;64.52;97773.88;25147;1313;3027074;-72
2022/04/03 02:43:08;;;;;;;17.60;8.60;;;;;;;8.55;64.59;97774.41;25114;1313;3026304;-69
2022/04/03 02:45:38;;;;;;;19.20;9.00;;;;;;;8.50;64.89;97768.40;25149;1313;3050840;-69
2022/04/03 02:48:08;;;;;;;22.50;9.90;;;;;;;8.50;64.87;97763.46;25121;1313;3026462;-65
2022/04/03 02:50:37;;;;;;;34.30;9.80;;;;;;;8.52;64.60;97763.30;25163;1313;3026694;-71
2022/04/03 02:53:08;;;;;;;26.30;9.50;;;;;;;8.54;64.41;97764.45;25103;1313;3027610;-67
2022/04/03 02:55:37;;;;;;;29.90;13.50;;;;;;;8.54;64.60;97770.02;25144;1313;3027309;-74
2022/04/03 02:58:08;;;;;;;26.70;12.80;;;;;;;8.55;64.23;97764.55;25081;1313;3026902;-66
2022/04/03 03:00:37;;;;;;;34.10;13.30;;;;;;;8.52;64.12;97762.78;25121;1313;3026789;-65
2022/04/03 03:03:07;;;;;;;33.10;13.60;;;;;;;8.53;64.25;97762.56;25133;1313;3054106;-74
2022/04/03 03:05:42;;;;;;;38.70;12.80;;;;;;;8.50;64.57;97763.12;25128;1313;3026249;-65
2022/04/03 03:08:18;;;;;;;32.80;12.30;;;;;;;8.50;64.51;97771.33;25131;1313;3053809;-75
2022/04/03 03:10:47;;;;;;;32.50;11.10;;;;;;;8.52;64.22;97772.28;25154;1313;3026441;-68
2022/04/03 03:13:16;;;;;;;31.60;11.70;;;;;;;8.44;64.64;97774.25;25072;1313;3026709;-67
2022/04/03 03:15:45;;;;;;;31.50;11.50;;;;;;;8.42;64.31;97770.77;25139;1315;3047674;-69
2022/04/03 03:18:34;;;;;;;25.70;10.10;;;;;;;8.32;64.57;97772.34;25080;1316;3052172;-70
2022/04/03 03:21:04;;;;;;;28.00;10.40;;;;;;;8.26;64.81;97770.06;25107;1313;3027875;-73
2022/04/03 03:23:34;;;;;;;32.60;10.30;;;;;;;8.30;64.54;97770.98;25157;1313;3026970;-73
2022/04/03 03:26:02;;;;;;;24.90;9.50;;;;;;;8.29;64.84;97779.65;25171;1313;3055381;-73
2022/04/03 03:28:32;;;;;;;20.20;8.20;;;;;;;8.29;64.78;97781.00;25094;1313;3026158;-71
2022/04/03 03:31:01;;;;;;;20.30;8.20;;;;;;;8.32;64.65;97784.44;25131;1313;3026209;-69
2022/04/03 03:33:30;;;;;;;15.70;7.70;;;;;;;8.32;64.97;97779.72;25107;1316;3053867;-67
2022/04/03 03:35:59;;;;;;;18.60;8.00;;;;;;;8.31;65.26;97779.63;25137;1313;3026820;-70
2022/04/03 03:38:29;;;;;;;14.30;7.10;;;;;;;8.34;65.21;97780.12;25146;1313;3051309;-70
2022/04/03 03:40:58;;;;;;;17.60;7.00;;;;;;;8.35;64.97;97779.42;25099;1313;3030474;-65
2022/04/03 03:43:27;;;;;;;15.80;7.50;;;;;;;8.35;65.14;97781.21;25129;1313;3026453;-64
2022/04/03 03:45:57;;;;;;;24.40;7.50;;;;;;;8.25;65.35;97775.58;25105;1313;3026452;-71
2022/04/03 03:48:26;;;;;;;19.70;8.40;;;;;;;8.26;66.10;97773.91;25094;1313;3027092;-72
2022/04/03 03:50:55;;;;;;;14.40;7.00;;;;;;;8.20;66.78;97771.78;25103;1316;3049842;-72
2022/04/03 03:53:24;;;;;;;9.30;5.20;;;;;;;8.18;67.60;97774.71;25097;1316;3026201;-67
2022/04/03 03:55:54;;;;;;;12.50;5.30;;;;;;;8.83;66.49;97771.04;25098;1313;3026684;-68
2022/04/03 03:58:24;;;;;;;13.10;5.90;;;;;;;9.27;64.42;97764.84;25124;1313;3027756;-72
2022/04/03 04:00:53;;;;;;;12.20;5.60;;;;;;;9.13;64.77;97747.95;25148;1313;3026877;-69
2022/04/03 04:03:22;;;;;;;10.70;5.30;;;;;;;9.06;64.89;97755.56;25128;1313;3026892;-70
2022/04/03 04:05:51;;;;;;;12.20;5.70;;;;;;;8.91;65.38;97754.27;25129;1313;3054290;-71
2022/04/03 04:08:20;;;;;;;10.80;5.80;;;;;;;8.68;66.51;97760.85;25202;1313;3027103;-73
2022/04/03 04:11:08;;;;;;;11.20;5.70;;;;;;;8.55;67.08;97758.20;25137;1313;3051535;-68
2022/04/03 04:13:57;;;;;;;11.30;6.00;;;;;;;8.34;67.97;97750.60;25166;1313;3052482;-70
2022/04/03 04:16:26;;;;;;;9.00;5.20;;;;;;;8.26;67.79;97754.03;25098;1313;3026609;-71
2022/04/03 04:18:55;;;;;;;12.20;5.80;;;;;;;8.18;68.17;97758.16;25154;1313;3050859;-67
2022/04/03 04:21:25;;;;;;;10.80;5.20;;;;;;;8.02;68.22;97763.17;25135;1313;3026313;-64
2022/04/03 04:23:54;;;;;;;10.10;4.80;;;;;;;7.98;68.89;97761.76;25118;1313;3026326;-68
2022/04/03 04:26:23;;;;;;;10.10;5.50;;;;;;;7.88;69.31;97757.82;25148;1312;3051118;-71
2022/04/03 04:28:52;;;;;;;7.70;4.40;;;;;;;7.91;69.55;97758.77;25100;1313;3026511;-66
2022/04/03 04:31:22;;;;;;;8.30;4.10;;;;;;;8.49;68.32;97761.98;25100;1312;3070216;-72
2022/04/03 04:33:52;;;;;;;6.60;4.10;;;;;;;8.88;66.76;97770.95;25091;1313;3026914;-69
2022/04/03 04:36:22;;;;;;;8.50;3.80;;;;;;;9.24;65.74;97774.19;25117;1313;3026392;-68
2022/04/03 04:38:52;;;;;;;7.50;3.90;;;;;;;9.12;65.48;97768.33;25114;1313;3027351;-70
2022/04/03 04:41:21;;;;;;;6.20;4.00;;;;;;;9.01;65.66;97769.08;25158;1313;3026866;-71
2022/04/03 04:43:50;;;;;;;7.50;4.50;;;;;;;8.86;65.78;97770.23;25177;1313;3055112;-66
2022/04/03 04:46:21;;;;;;;7.10;4.10;;;;;;;8.75;66.34;97770.77;25126;1313;3026357;-65
2022/04/03 04:48:50;;;;;;;8.30;4.00;;;;;;;8.57;66.96;97775.91;25052;1312;3028296;-66
2022/04/03 04:51:19;;;;;;;8.70;4.40;;;;;;;8.46;67.53;97775.52;25105;1313;3026531;-66
2022/04/03 04:53:48;;;;;;;6.70;4.20;;;;;;;8.33;67.87;97770.42;25097;1313;3055290;-71
2022/04/03 04:56:17;;;;;;;6.20;3.70;;;;;;;8.31;68.42;97774.54;25085;1313;3026584;-68
2022/04/03 04:58:46;;;;;;;6.90;3.70;;;;;;;8.28;68.39;97781.73;25129;1313;3027115;-64
2022/04/03 05:01:15;;;;;;;6.80;4.10;;;;;;;8.37;67.47;97778.08;25090;1313;3054521;-61
2022/04/03 05:03:45;;;;;;;4.90;2.50;;;;;;;8.37;67.83;97772.67;25129;1313;3026346;-63
2022/04/03 05:06:15;;;;;;;5.80;3.40;;;;;;;8.97;67.30;97769.73;25094;1313;3027087;-70
2022/04/03 05:08:46;;;;;;;5.50;3.60;;;;;;;9.60;65.81;97771.55;25091;1313;3026296;-70
2022/04/03 05:11:15;;;;;;;7.30;4.00;;;;;;;9.72;65.01;97774.57;25117;1313;3026377;-74
2022/04/03 05:13:45;;;;;;;8.80;4.80;;;;;;;9.42;64.97;97781.27;25144;1313;3051790;-72
2022/04/03 05:16:14;;;;;;;8.10;4.70;;;;;;;9.24;65.73;97784.69;25077;1316;3027482;-69
2022/04/03 05:19:03;;;;;;;8.70;4.10;;;;;;;8.96;67.54;97784.14;25329;1313;3054049;-63
2022/04/03 05:21:35;;;;;;;8.00;4.70;;;;;;;8.95;67.55;97775.62;25492;1313;3026906;-62
2022/04/03 05:24:23;;;;;;;9.70;4.90;;;;;;;8.85;67.50;97763.54;25482;1313;3052250;-63
2022/04/03 05:26:52;;;;;;;9.30;4.90;;;;;;;8.80;67.56;97763.94;25093;1313;3026620;-66
2022/04/03 05:29:21;;;;;;;10.60;5.30;;;;;;;8.75;67.84;97767.48;25135;1313;3069564;-69
2022/04/03 05:31:51;;;;;;;8.10;4.90;;;;;;;8.74;67.17;97770.66;25118;1313;3028547;-69
2022/04/03 05:34:21;;;;;;;12.50;5.30;;;;;;;8.62;67.94;97771.86;25135;1312;3027334;-72
2022/04/03 05:36:50;;;;;;;10.00;4.90;;;;;;;8.49;67.80;97767.05;25105;1313;3027391;-68
2022/04/03 05:39:19;;;;;;;11.10;5.50;;;;;;;8.41;68.38;97773.80;25116;1313;3026316;-68
2022/04/03 05:41:53;;;;;;;5.60;3.40;;;;;;;8.40;68.34;97775.23;25157;1312;3055686;-63
2022/04/03 05:44:22;;;;;;;9.30;4.40;;;;;;;8.94;67.05;97773.63;25081;1312;3055080;-73
2022/04/03 05:46:51;;;;;;;6.70;4.00;;;;;;;9.43;65.31;97770.17;25119;1313;3026530;-68
2022/04/03 05:49:22;;;;;;;9.60;5.40;;;;;;;9.32;64.96;97771.91;25047;1313;3028344;-69
2022/04/03 05:51:53;;;;;;;11.00;5.40;;;;;;;9.33;65.19;97773.44;25128;1312;3026938;-70
2022/04/03 05:54:22;;;;;;;11.70;6.30;;;;;;;9.16;65.54;97780.02;25090;1313;3026623;-66
2022/04/03 05:56:51;;;;;;;16.70;6.80;;;;;;;8.83;66.51;97777.52;25101;1313;3026777;-71
2022/04/03 05:59:20;;;;;;;33.90;10.60;;;;;;;8.62;67.23;97773.88;25148;1313;3026493;-64
2022/04/03 06:01:49;;;;;;;27.40;10.70;;;;;;;8.50;67.26;97772.38;25144;1313;3051627;-67
2022/04/03 06:04:19;;;;;;;39.30;15.50;;;;;;;8.41;67.81;97776.23;25165;1313;3030727;-73
2022/04/03 06:06:48;;;;;;;49.60;17.20;;;;;;;8.28;68.21;97775.17;25103;1313;3026314;-63
2022/04/03 06:09:23;;;;;;;49.00;17.20;;;;;;;8.23;68.51;97779.91;25109;1313;3053052;-65
2022/04/03 06:11:53;;;;;;;32.70;13.80;;;;;;;8.18;68.80;97781.02;25144;1313;3026154;-64
2022/04/03 06:14:23;;;;;;;43.10;15.00;;;;;;;8.16;69.09;97784.79;25114;1313;3026079;-64
2022/04/03 06:16:52;;;;;;;33.70;11.20;;;;;;;8.31;68.90;97791.27;25095;1313;3026747;-71
2022/04/03 06:19:21;;;;;;;33.50;11.10;;;;;;;8.89;67.73;97788.30;25101;1313;3026669;-66
2022/04/03 06:21:51;;;;;;;38.80;12.50;;;;;;;9.57;65.54;97791.75;25104;1313;3052153;-68
2022/04/03 06:24:19;;;;;;;32.00;10.50;;;;;;;9.88;64.83;97783.51;25107;1313;3026926;-66
2022/04/03 06:26:48;;;;;;;30.20;11.30;;;;;;;9.77;64.52;97787.08;25084;1313;3070919;-74
2022/04/03 06:29:18;;;;;;;26.80;11.90;;;;;;;9.37;65.60;97793.02;25075;1313;3026214;-70
2022/04/03 06:31:47;;;;;;;30.20;13.00;;;;;;;9.23;66.21;97794.67;25171;1313;3053606;-74
2022/04/03 06:34:16;;;;;;;30.60;13.00;;;;;;;8.95;67.15;97794.70;25070;1313;3029427;-72
2022/04/03 06:36:45;;;;;;;42.40;16.20;;;;;;;8.86;68.02;97804.59;25119;1313;3055374;-70
2022/04/03 06:39:14;;;;;;;31.30;14.70;;;;;;;8.90;67.88;97805.05;25088;1313;3026456;-74
2022/04/03 06:41:43;;;;;;;35.30;17.50;;;;;;;8.82;68.25;97802.50;25097;1313;3051514;-72
2022/04/03 06:44:12;;;;;;;37.50;17.70;;;;;;;8.57;69.36;97795.58;25078;1313;3026534;-73
2022/04/03 06:46:42;;;;;;;36.40;17.20;;;;;;;8.59;69.38;97792.46;25098;1312;3027180;-71
2022/04/03 06:49:12;;;;;;;22.90;11.80;;;;;;;8.51;69.96;97793.83;25050;1312;3026165;-69
2022/04/03 06:51:41;;;;;;;23.30;12.60;;;;;;;9.18;68.43;97792.95;25139;1313;3026791;-70
2022/04/03 06:54:12;;;;;;;22.20;11.90;;;;;;;9.93;65.94;97785.89;25076;1313;3028297;-68
2022/04/03 06:56:42;;;;;;;28.00;14.40;;;;;;;10.00;64.90;97786.86;25080;1312;3026360;-70
2022/04/03 06:59:12;;;;;;;28.00;14.70;;;;;;;9.93;65.03;97786.66;25069;1313;3028513;-67
2022/04/03 07:01:41;;;;;;;28.50;15.00;;;;;;;9.87;64.89;97788.89;25106;1313;3027467;-70
2022/04/03 07:04:10;;;;;;;33.80;16.30;;;;;;;9.76;65.32;97789.31;25119;1313;3054694;-67
2022/04/03 07:06:39;;;;;;;38.80;18.60;;;;;;;9.69;65.74;97791.42;25130;1313;3026759;-69
2022/04/03 07:09:09;;;;;;;40.70;21.50;;;;;;;9.65;65.65;97792.13;25107;1312;3054206;-69
2022/04/03 07:11:39;;;;;;;45.80;21.60;;;;;;;9.70;65.03;97793.42;25136;1313;3026343;-66
2022/04/03 07:14:08;;;;;;;39.40;20.50;;;;;;;9.59;64.88;97794.55;25096;1313;3026723;-71
2022/04/03 07:16:37;;;;;;;36.80;18.10;;;;;;;9.37;65.63;97788.17;25113;1313;3054695;-64
2022/04/03 07:19:06;;;;;;;33.40;16.70;;;;;;;9.31;66.02;97792.24;25124;1313;3026989;-69
2022/04/03 07:21:37;;;;;;;30.70;15.60;;;;;;;9.30;66.36;97785.07;25136;1313;3026471;-68
2022/04/03 07:24:06;;;;;;;29.50;14.00;;;;;;;9.15;66.68;97784.81;25092;1313;3026911;-71
2022/04/03 07:26:36;;;;;;;25.50;13.70;;;;;;;9.12;66.25;97774.66;25115;1312;3050693;-68
2022/04/03 07:29:05;;;;;;;25.70;13.80;;;;;;;8.91;66.98;97764.28;25092;1313;3026769;-67
2022/04/03 07:31:37;;;;;;;24.70;13.10;;;;;;;8.98;66.60;97768.56;25108;1312;3026712;-70
2022/04/03 07:34:06;;;;;;;26.80;13.60;;;;;;;9.07;67.02;97766.63;25107;1313;3026742;-74
2022/04/03 07:36:35;;;;;;;24.60;14.00;;;;;;;9.17;66.62;97768.05;25140;1313;3058160;-70
2022/04/03 07:39:04;;;;;;;29.70;15.10;;;;;;;9.29;65.46;97768.17;25080;1313;3026681;-68
2022/04/03 07:41:33;;;;;;;28.70;16.00;;;;;;;9.26;65.02;97769.06;25115;1313;3053000;-73
2022/04/03 07:44:08;;;;;;;23.60;13.20;;;;;;;9.32;65.33;97768.98;25168;1313;3026656;-75
2022/04/03 07:46:37;;;;;;;25.70;15.00;;;;;;;9.50;64.86;97770.47;25210;1313;3052191;-73
2022/04/03 07:49:06;;;;;;;26.20;13.10;;;;;;;9.62;64.17;97771.56;25172;1312;3026953;-72
2022/04/03 07:51:35;;;;;;;22.60;13.00;;;;;;;9.64;64.56;97774.59;25293;1313;3026673;-70
2022/04/03 07:54:05;;;;;;;21.60;12.60;;;;;;;9.59;64.79;97773.35;25219;1313;3052156;-69
2022/04/03 07:56:35;;;;;;;24.00;14.40;;;;;;;9.57;64.70;97773.40;25225;1313;3026746;-65
2022/04/03 07:59:05;;;;;;;24.20;15.10;;;;;;;9.57;64.25;97769.74;25225;1313;3056511;-61
2022/04/03 08:01:35;;;;;;;26.50;16.60;;;;;;;9.66;64.32;97757.27;25260;1312;3026981;-67
2022/04/03 08:04:06;;;;;;;22.30;13.40;;;;;;;9.72;64.34;97746.73;25174;1312;3026246;-66
2022/04/03 08:06:34;;;;;;;26.00;13.00;;;;;;;9.82;63.71;97745.30;25251;1313;3026392;-67
2022/04/03 08:09:05;;;;;;;22.30;13.20;;;;;;;9.78;63.34;97746.80;25238;1312;3049818;-66
2022/04/03 08:11:36;;;;;;;21.00;14.00;;;;;;;9.83;63.47;97738.48;25211;1313;3026857;-67
2022/04/03 08:14:07;;;;;;;19.80;12.70;;;;;;;9.77;63.65;97739.20;25132;1313;3026634;-66
2022/04/03 08:16:36;;;;;;;23.60;14.50;;;;;;;9.77;63.03;97753.52;25106;1313;3026296;-70
2022/04/03 08:19:06;;;;;;;23.20;15.70;;;;;;;9.78;63.07;97759.91;25122;1313;3026436;-71
2022/04/03 08:21:36;;;;;;;23.40;15.80;;;;;;;9.75;63.08;97766.63;25104;1313;3050216;-68
2022/04/03 08:24:06;;;;;;;24.80;15.20;;;;;;;9.81;63.13;97767.90;25067;1312;3027397;-70
2022/04/03 08:26:36;;;;;;;23.50;14.90;;;;;;;9.82;62.60;97768.18;25149;1313;3026743;-67
2022/04/03 08:29:05;;;;;;;26.80;15.00;;;;;;;9.77;62.62;97771.77;25131;1312;3026543;-72
2022/04/03 08:31:35;;;;;;;29.40;16.70;;;;;;;9.70;62.69;97773.91;25104;1312;3070134;-71
2022/04/03 08:34:04;;;;;;;30.50;14.10;;;;;;;9.64;62.50;97766.64;25133;1313;3026364;-70
2022/04/03 08:36:35;;;;;;;24.00;14.00;;;;;;;9.65;62.59;97771.33;25081;1313;3054209;-68
2022/04/03 08:39:04;;;;;;;30.40;15.70;;;;;;;9.55;62.62;97764.24;25178;1313;3027100;-70
2022/04/03 08:41:35;;;;;;;34.60;16.70;;;;;;;9.56;62.66;97766.48;25074;1313;3028253;-69
2022/04/03 08:44:07;;;;;;;30.20;16.60;;;;;;;9.66;62.41;97760.26;25151;1312;3026879;-73
2022/04/03 08:46:38;;;;;;;38.10;19.80;;;;;;;9.66;62.45;97759.11;25136;1312;3027011;-69
2022/04/03 08:49:07;;;;;;;41.80;20.50;;;;;;;9.54;62.55;97759.33;25153;1313;3026428;-68
2022/04/03 08:51:36;;;;;;;44.60;24.10;;;;;;;9.68;62.71;97759.86;25079;1313;3026355;-68
2022/04/03 08:54:07;;;;;;;45.40;24.30;;;;;;;9.72;62.58;97765.48;25084;1313;3054165;-68
2022/04/03 08:56:37;;;;;;;44.40;23.10;;;;;;;9.70;62.27;97757.10;25150;1313;3026903;-69
2022/04/03 08:59:05;;;;;;;38.30;22.90;;;;;;;9.66;62.37;97754.29;25107;1313;3026645;-62
2022/04/03 09:01:34;;;;;;;35.70;20.60;;;;;;;9.64;62.41;97754.06;25092;1313;3054441;-68
2022/04/03 09:04:05;;;;;;;36.10;20.20;;;;;;;9.71;62.38;97757.86;25091;1313;3030026;-72
2022/04/03 09:06:34;;;;;;;35.40;19.00;;;;;;;9.74;62.20;97753.25;25149;1313;3053720;-64
2022/04/03 09:09:04;;;;;;;36.90;19.40;;;;;;;9.71;62.74;97751.75;25113;1313;3027411;-62
2022/04/03 09:11:33;;;;;;;34.10;19.70;;;;;;;9.68;63.43;97748.36;25116;1312;3026105;-69
2022/04/03 09:14:10;;;;;;;35.80;20.20;;;;;;;9.74;63.65;97749.59;25084;1313;3052173;-73
2022/04/03 09:16:40;;;;;;;30.50;19.30;;;;;;;9.75;64.30;97750.60;25149;1313;3055528;-69
2022/04/03 09:19:09;;;;;;;32.00;19.40;;;;;;;9.70;65.06;97750.26;25136;1313;3026516;-77
2022/04/03 09:21:38;;;;;;;31.50;18.40;;;;;;;9.63;65.57;97754.50;25079;1316;3055072;-69
2022/04/03 09:24:08;;;;;;;32.20;18.50;;;;;;;9.65;66.68;97759.46;25131;1312;3026525;-73
2022/04/03 09:26:40;;;;;;;22.50;13.10;;;;;;;9.70;66.44;97748.13;25126;1313;3049707;-73
2022/04/03 09:29:14;;;;;;;25.20;12.00;;;;;;;10.20;63.66;97746.58;25331;1313;3025826;-63
2022/04/03 09:31:46;;;;;;;23.10;12.60;;;;;;;10.76;61.43;97748.91;25539;1313;3055433;-62
2022/04/03 09:34:16;;;;;;;24.60;13.40;;;;;;;10.97;60.78;97746.66;25548;1312;3026403;-64
2022/04/03 09:37:05;;;;;;;24.80;13.30;;;;;;;10.87;60.65;97743.23;25226;1313;3026352;-72
2022/04/03 09:39:34;;;;;;;26.10;13.90;;;;;;;10.76;61.23;97735.58;25170;1313;3052778;-73
2022/04/03 09:42:05;;;;;;;19.00;12.10;;;;;;;10.68;62.10;97733.98;25136;1313;3026634;-71
2022/04/03 09:44:39;;;;;;;18.10;10.90;;;;;;;10.64;62.37;97725.81;25173;1313;3026555;-68
2022/04/03 09:47:27;;;;;;;20.10;10.50;;;;;;;10.54;62.67;97719.85;25104;1313;3052308;-70
2022/04/03 09:49:58;;;;;;;15.10;9.50;;;;;;;10.50;63.07;97717.24;25142;1312;3055309;-69
2022/04/03 09:52:48;;;;;;;18.60;10.00;;;;;;;10.41;63.65;97714.16;25121;1313;3026839;-71
2022/04/03 09:55:24;;;;;;;14.00;9.40;;;;;;;10.32;64.00;97717.69;25113;1313;3056633;-69
2022/04/03 09:58:03;;;;;;;17.40;9.80;;;;;;;10.10;64.42;97718.70;25139;1313;3049381;-72
2022/04/03 10:00:35;;;;;;;13.80;8.60;;;;;;;9.96;64.56;97717.86;25083;1313;3054430;-70
2022/04/03 10:03:04;;;;;;;15.90;9.60;;;;;;;9.70;65.33;97727.59;25210;1313;3026629;-69
2022/04/03 10:05:36;;;;;;;16.50;10.50;;;;;;;9.74;65.07;97740.15;25107;1313;3026581;-65
2022/04/03 10:08:06;;;;;;;18.50;9.90;;;;;;;9.71;65.56;97744.38;25145;1313;3026180;-72
2022/04/03 10:10:36;;;;;;;16.60;9.40;;;;;;;9.68;66.29;97750.02;25116;1313;3026475;-76
2022/04/03 10:13:24;;;;;;;21.80;12.00;;;;;;;9.69;66.08;97755.61;25088;1313;3053550;-67
2022/04/03 10:15:54;;;;;;;24.20;13.10;;;;;;;9.55;67.12;97755.89;25111;1313;3028696;-71
2022/04/03 10:18:24;;;;;;;17.80;9.10;;;;;;;9.48;67.54;97761.56;25127;1312;3054775;-70
2022/04/03 10:20:55;;;;;;;18.20;8.70;;;;;;;9.90;66.83;97761.67;25147;1313;3026337;-68
2022/04/03 10:23:24;;;;;;;18.40;9.30;;;;;;;10.52;65.52;97757.30;25158;1312;3026475;-69
2022/04/03 10:25:55;;;;;;;19.70;10.40;;;;;;;10.53;65.06;97762.23;25138;1313;3054497;-75
2022/04/03 10:28:25;;;;;;;15.50;7.90;;;;;;;10.19;65.15;97774.48;25102;1313;3030093;-74
2022/04/03 10:31:07;;;;;;;15.70;9.30;;;;;;;9.77;66.23;97774.19;25214;1313;3027535;-69
2022/04/03 10:33:38;;;;;;;15.70;8.80;;;;;;;9.61;66.76;97781.39;25078;1313;3051568;-71
2022/04/03 10:36:12;;;;;;;16.90;10.10;;;;;;;9.26;67.96;97785.70;25142;1313;3026625;-71
2022/04/03 10:38:45;;;;;;;27.50;14.20;;;;;;;8.95;68.30;97789.77;25114;1313;3053097;-75
2022/04/03 10:41:29;;;;;;;28.10;13.90;;;;;;;8.69;69.42;97789.75;25080;1312;3066630;-65
2022/04/03 10:44:22;;;;;;;27.60;13.90;;;;;;;8.54;69.73;97791.10;25193;1313;3051561;-72
2022/04/03 10:47:04;;;;;;;29.20;14.50;;;;;;;8.37;71.12;97795.86;25109;1313;3054470;-71
2022/04/03 10:49:59;;;;;;;30.60;15.80;;;;;;;8.47;70.53;97783.95;25174;1313;3052593;-67
2022/04/03 10:52:37;;;;;;;27.70;14.70;;;;;;;9.10;69.28;97778.79;25151;1313;3059263;-71
2022/04/03 10:55:19;;;;;;;27.60;15.70;;;;;;;9.38;68.21;97777.23;25058;1313;3053362;-70
2022/04/03 10:57:50;;;;;;;28.20;15.10;;;;;;;9.51;68.03;97776.20;25125;1313;3054060;-63
2022/04/03 11:00:20;;;;;;;26.70;14.00;;;;;;;9.39;68.21;97777.88;25114;1313;3028501;-68
2022/04/03 11:02:56;;;;;;;25.20;14.40;;;;;;;9.18;68.56;97774.27;25096;1313;3070280;-72
2022/04/03 11:05:28;;;;;;;24.70;13.50;;;;;;;8.98;69.39;97773.50;25099;1313;3026527;-71
2022/04/03 11:08:01;;;;;;;27.60;14.40;;;;;;;8.88;70.24;97771.29;25128;1313;3051023;-75
2022/04/03 11:10:48;;;;;;;20.70;11.80;;;;;;;8.77;70.37;97771.47;25184;1313;3028736;-75
2022/04/03 11:13:38;;;;;;;17.10;9.70;;;;;;;8.70;71.16;97771.50;25128;1313;3049067;-70
2022/04/03 11:16:11;;;;;;;18.90;9.70;;;;;;;9.50;69.50;97766.77;25120;1313;3052328;-69
2022/04/03 11:18:52;;;;;;;17.50;10.00;;;;;;;9.98;67.83;97759.27;25144;1312;3054249;-71
2022/04/03 11:21:22;;;;;;;14.80;9.10;;;;;;;9.91;66.75;97750.56;25120;1312;3059022;-73
2022/04/03 11:24:11;;;;;;;20.10;10.40;;;;;;;9.49;67.85;97756.73;25149;1313;3026290;-69
2022/04/03 11:26:42;;;;;;;16.80;10.50;;;;;;;9.21;69.58;97754.16;25107;1312;3055735;-70
2022/04/03 11:29:12;;;;;;;17.90;11.10;;;;;;;9.07;70.34;97754.77;25128;1313;3026501;-71
2022/04/03 11:31:43;;;;;;;20.40;10.70;;;;;;;9.05;69.77;97748.83;25163;1313;3026566;-74
2022/04/03 11:34:12;;;;;;;16.30;10.20;;;;;;;8.82;69.41;97756.40;25205;1313;3027252;-67